Matina, Brazil
Current Conditions -  °F | °C
As of 6:00 AM on Sunday 21 Dec 2014 (Local Time) from SBQV Reporting Station
Few Clouds Few Clouds  
Wind Chill: 66°   Ceiling: Unl
Heat Index: 66°   Visibility: 6mi
Dew Point: 64°   Wind: 5mph
Humidity: 94%   Direction: 90°E
Pressure: 30.12"   Gusts: NA
Location:  13.91°S, 42.85°W
Report Text: SBQV 210900Z 09004KT 9999 FEW006 19/18 Q1020
Loading
Personal Weather Stations






























Interactive Weather Map New forecast layout! Learn more

10-Day Weather Forecast

Advertisements
Track Severe Weather on mobile